createdAt,value
2023-02-02T00:01:59.898Z,97562.06
2023-02-02T00:04:34.917Z,97562.03
2023-02-02T00:07:08.379Z,97543.91
2023-02-02T00:09:39.039Z,97532.69
2023-02-02T00:19:02.368Z,97518.91
2023-02-02T00:21:34.458Z,97500.81
2023-02-02T00:24:05.299Z,97518.03
2023-02-02T00:26:35.669Z,97533.59
2023-02-02T00:29:06.339Z,97524.09
2023-02-02T00:31:37.025Z,97532.69
2023-02-02T00:34:07.980Z,97527.50
2023-02-02T00:36:39.495Z,97527.53
2023-02-02T00:39:11.138Z,97534.44
2023-02-02T00:41:41.135Z,97525.81
2023-02-02T00:44:28.335Z,97536.16
2023-02-02T00:46:59.660Z,97537.03
2023-02-02T00:49:30.258Z,97402.50
2023-02-02T00:52:03.957Z,97530.91
2023-02-02T00:55:00.404Z,97525.75
2023-02-02T00:57:34.416Z,97521.41
2023-02-02T01:00:09.881Z,97517.13
2023-02-02T01:02:40.735Z,97511.91
2023-02-02T01:05:13.130Z,97508.47
2023-02-02T01:07:46.873Z,97517.91
2023-02-02T01:10:18.425Z,97493.81
2023-02-02T01:12:59.136Z,97501.59
2023-02-02T01:15:31.328Z,97517.13
2023-02-02T01:18:01.475Z,97523.13
2023-02-02T01:20:32.501Z,97532.63
2023-02-02T01:23:05.214Z,97512.75
2023-02-02T01:25:39.295Z,97523.94
2023-02-02T01:28:10.216Z,97524.81
2023-02-02T01:30:40.262Z,97529.16
2023-02-02T01:33:11.082Z,97531.72
2023-02-02T01:35:48.861Z,97520.47
2023-02-02T01:38:22.035Z,97510.06
2023-02-02T01:40:54.395Z,97500.56
2023-02-02T01:43:27.338Z,97374.63
2023-02-02T01:45:59.478Z,97476.19
2023-02-02T01:48:32.261Z,97457.25
2023-02-02T01:51:05.895Z,97483.06
2023-02-02T01:53:38.319Z,97485.72
2023-02-02T01:56:11.754Z,97478.75
2023-02-02T01:58:44.456Z,97490.69
2023-02-02T02:01:16.353Z,97490.63
2023-02-02T02:03:46.655Z,97475.00
2023-02-02T02:06:21.740Z,97470.66
2023-02-02T02:08:59.334Z,97475.78
2023-02-02T02:11:29.938Z,97480.13
2023-02-02T02:14:20.099Z,97363.97
2023-02-02T02:17:01.814Z,97345.03
2023-02-02T02:20:22.834Z,97456.84
2023-02-02T02:23:30.353Z,97474.09
2023-02-02T02:26:38.368Z,97472.28
2023-02-02T02:29:36.373Z,97477.50
2023-02-02T02:32:23.370Z,97476.69
2023-02-02T02:35:00.794Z,97432.81
2023-02-02T02:37:39.711Z,97468.97
2023-02-02T02:40:21.300Z,97412.16
2023-02-02T02:42:57.476Z,97468.97
2023-02-02T02:45:42.614Z,97470.56
2023-02-02T02:48:21.496Z,97453.38
2023-02-02T02:50:52.073Z,97465.50
2023-02-02T02:53:24.995Z,97481.88
2023-02-02T02:56:04.915Z,97480.25
2023-02-02T02:58:41.577Z,97473.41
2023-02-02T03:01:21.623Z,97472.56
2023-02-02T03:04:11.861Z,97448.44
2023-02-02T03:06:50.477Z,97396.66
2023-02-02T03:09:25.540Z,97410.44
2023-02-02T03:11:57.532Z,97464.56
2023-02-02T03:14:27.553Z,97459.28
2023-02-02T03:16:57.615Z,97433.31
2023-02-02T03:19:29.270Z,97454.06
2023-02-02T03:21:59.754Z,97457.53
2023-02-02T03:24:29.833Z,97448.84
2023-02-02T03:26:59.913Z,97445.34
2023-02-02T03:29:30.758Z,97439.97
2023-02-02T03:32:01.134Z,97382.16
2023-02-02T03:34:33.216Z,97440.72
2023-02-02T03:37:03.354Z,97440.72
2023-02-02T03:39:33.294Z,97423.53
2023-02-02T03:42:03.374Z,97443.34
2023-02-02T03:44:33.415Z,97436.38
2023-02-02T03:47:04.073Z,97431.16
2023-02-02T03:49:35.753Z,97435.44
2023-02-02T03:52:06.714Z,97437.16
2023-02-02T03:54:36.775Z,97424.09
2023-02-02T03:57:07.233Z,97427.59
2023-02-02T03:59:37.736Z,97395.69
2023-02-02T04:02:07.816Z,97406.88
2023-02-02T04:04:42.434Z,97413.69
2023-02-02T04:07:12.855Z,97421.50
2023-02-02T04:09:43.053Z,97413.78
2023-02-02T04:12:13.175Z,97380.25
2023-02-02T04:14:43.294Z,97401.69
2023-02-02T04:17:14.276Z,97424.09
2023-02-02T04:19:46.378Z,97399.84
2023-02-02T04:22:17.454Z,97417.19
2023-02-02T04:24:47.994Z,97411.22
2023-02-02T04:27:18.374Z,97412.91
2023-02-02T06:15:39.239Z,97499.81
2023-02-02T06:18:08.520Z,97611.09
2023-02-02T06:20:36.830Z,97601.66
2023-02-02T06:23:05.434Z,97638.84
2023-02-02T06:25:34.409Z,97660.47
2023-02-02T06:28:02.888Z,97600.88
2023-02-02T06:30:30.965Z,97661.34
2023-02-02T06:33:02.223Z,97666.53
2023-02-02T06:35:31.243Z,97679.50
2023-02-02T06:37:59.577Z,97682.09
2023-02-02T06:40:28.141Z,97689.88
2023-02-02T06:42:59.842Z,97692.44
2023-02-02T06:45:29.001Z,97655.31
2023-02-02T06:48:03.676Z,97534.44
2023-02-02T06:50:32.647Z,97670.88
2023-02-02T06:53:00.895Z,97694.19
2023-02-02T06:55:29.079Z,97707.13
2023-02-02T06:57:58.801Z,97658.75
2023-02-02T07:00:27.957Z,97661.38
2023-02-02T07:02:56.618Z,97662.22
2023-02-02T07:05:29.219Z,97711.44
2023-02-02T07:07:58.469Z,97692.47
2023-02-02T07:11:09.505Z,97695.88
2023-02-02T07:13:14.962Z,97710.56
2023-02-02T07:15:43.230Z,97709.72
2023-02-02T07:18:11.470Z,97710.59
2023-02-02T07:20:41.016Z,97689.84
2023-02-02T07:23:09.218Z,97720.09
2023-02-02T07:25:37.406Z,97714.91
2023-02-02T07:28:06.266Z,97699.34
2023-02-02T07:30:34.436Z,97746.00
2023-02-02T07:33:02.637Z,97739.09
2023-02-02T07:35:30.839Z,97735.66
2023-02-02T07:38:00.437Z,97738.22
2023-02-02T07:40:28.671Z,97734.78
2023-02-02T07:43:00.678Z,97748.59
2023-02-02T07:45:28.867Z,97749.47
2023-02-02T07:47:58.291Z,97733.91
2023-02-02T07:50:26.916Z,97751.19
2023-02-02T07:52:55.372Z,97747.75
2023-02-02T07:55:24.961Z,97745.13
2023-02-02T07:57:55.595Z,97759.00
2023-02-02T08:00:25.132Z,97759.00
2023-02-02T08:02:53.691Z,97745.16
2023-02-02T08:05:23.188Z,97768.47
2023-02-02T08:07:51.581Z,97765.91
2023-02-02T08:10:19.940Z,97735.63
2023-02-02T08:12:49.594Z,97765.88
2023-02-02T08:15:17.831Z,97771.91
2023-02-02T08:17:49.973Z,97777.09
2023-02-02T08:20:18.264Z,97755.50
2023-02-02T08:22:46.518Z,97779.69
2023-02-02T08:25:14.706Z,97776.25
2023-02-02T08:27:42.891Z,97777.94
2023-02-02T08:30:14.111Z,97800.44
2023-02-02T08:32:42.281Z,97764.97
2023-02-02T08:35:10.705Z,97768.44
2023-02-02T08:37:39.018Z,97794.38
2023-02-02T08:40:08.622Z,97803.00
2023-02-02T08:42:36.766Z,97808.19
2023-02-02T08:46:00.465Z,97758.94
2023-02-02T08:48:09.536Z,97817.72
2023-02-02T08:50:39.965Z,97829.00
2023-02-02T08:53:08.074Z,97833.31
2023-02-02T08:55:36.238Z,97827.25
2023-02-02T08:58:05.401Z,97782.31
2023-02-02T09:00:33.586Z,97834.16
2023-02-02T09:03:03.131Z,97828.97
2023-02-02T09:05:31.283Z,97858.38
2023-02-02T09:07:59.537Z,97854.94
2023-02-02T09:10:27.933Z,97727.84
2023-02-02T09:12:56.245Z,97866.16
2023-02-02T09:15:24.658Z,97860.97
2023-02-02T09:17:53.764Z,97832.44
2023-02-02T09:20:23.323Z,97867.88
2023-02-02T09:22:51.468Z,97863.56
2023-02-02T09:25:19.601Z,97833.28
2023-02-02T09:27:47.758Z,97865.28
2023-02-02T09:30:16.348Z,97870.50
2023-02-02T09:32:45.730Z,97875.66
2023-02-02T09:35:13.886Z,97891.22
2023-02-02T09:37:44.322Z,97864.41
2023-02-02T09:40:19.392Z,97874.78
2023-02-02T09:43:02.820Z,97824.66
2023-02-02T09:45:40.429Z,97867.91
2023-02-02T09:48:22.123Z,97741.69
2023-02-02T09:50:55.579Z,97875.66
2023-02-02T09:53:53.009Z,97860.09
2023-02-02T09:56:28.425Z,97828.13
2023-02-02T09:59:13.767Z,97893.84
2023-02-02T10:01:51.328Z,97892.97
2023-02-02T10:04:23.527Z,97886.94
2023-02-02T10:06:54.535Z,97867.91
2023-02-02T10:09:35.882Z,97892.13
2023-02-02T10:12:13.551Z,97892.09
2023-02-02T10:14:48.599Z,97891.25
2023-02-02T10:17:34.567Z,97897.31
2023-02-02T10:20:25.973Z,97886.91
2023-02-02T10:22:59.307Z,97880.88
2023-02-02T10:25:30.401Z,97889.50
2023-02-02T10:28:05.999Z,97890.38
2023-02-02T10:30:44.074Z,97897.31
2023-02-02T10:33:20.375Z,97892.97
2023-02-02T10:35:57.752Z,97885.16
2023-02-02T10:38:37.896Z,97892.97
2023-02-02T10:41:16.892Z,97898.16
2023-02-02T10:44:07.462Z,97887.75
2023-02-02T10:46:40.949Z,97883.44
2023-02-02T10:49:18.121Z,97879.97
2023-02-02T10:51:54.530Z,97880.81
2023-02-02T10:54:55.035Z,97814.28
2023-02-02T10:57:44.125Z,97810.81
2023-02-02T11:00:23.072Z,97839.34
2023-02-02T11:02:53.028Z,97874.78
2023-02-02T11:05:41.308Z,97851.38
2023-02-02T11:08:18.075Z,97808.16
2023-02-02T11:10:48.555Z,97845.34
2023-02-02T11:13:28.391Z,97841.88
2023-02-02T11:16:22.030Z,97853.06
2023-02-02T11:18:50.833Z,97853.09
2023-02-02T11:21:27.034Z,97848.75
2023-02-02T11:23:57.977Z,97847.03
2023-02-02T11:26:27.031Z,97821.91
2023-02-02T11:28:59.981Z,97793.41
2023-02-02T11:31:36.356Z,97833.13
2023-02-02T11:34:20.373Z,97752.81
2023-02-02T11:37:13.934Z,97702.69
2023-02-02T11:39:42.642Z,97832.13
2023-02-02T11:42:16.325Z,97835.56
2023-02-02T11:44:49.515Z,97820.78
2023-02-02T11:47:23.476Z,97825.94
2023-02-02T11:49:53.031Z,97821.53
2023-02-02T11:52:24.840Z,97818.16
2023-02-02T11:54:55.981Z,97816.44
2023-02-02T11:57:26.487Z,97814.63
2023-02-02T12:00:16.457Z,97679.06
2023-02-02T12:02:47.626Z,97822.44
2023-02-02T12:05:35.409Z,97818.94
2023-02-02T12:08:04.921Z,97817.22
2023-02-02T12:10:39.601Z,97821.53
2023-02-02T12:13:11.305Z,97812.91
2023-02-02T12:15:51.065Z,97813.78
2023-02-02T12:18:35.843Z,97813.81
2023-02-02T12:21:07.350Z,97815.56
2023-02-02T12:23:47.615Z,97815.56
2023-02-02T12:26:25.241Z,97820.69
2023-02-02T12:29:15.155Z,97814.66
2023-02-02T12:32:00.325Z,97813.91
2023-02-02T12:34:38.825Z,97681.84
2023-02-02T12:37:15.570Z,97821.69
2023-02-02T12:39:57.718Z,97819.16
2023-02-02T12:42:37.287Z,97817.47
2023-02-02T12:45:48.282Z,97816.59
2023-02-02T12:48:32.913Z,97814.00
2023-02-02T12:51:16.807Z,97782.03
2023-02-02T12:54:35.025Z,97821.78
2023-02-02T12:57:15.980Z,97803.66
2023-02-02T13:00:12.846Z,97778.63
2023-02-02T13:02:54.720Z,97808.84
2023-02-02T13:05:40.453Z,97812.31
2023-02-02T13:08:13.061Z,97818.38
2023-02-02T13:10:44.080Z,97647.38
2023-02-02T13:13:17.721Z,97807.13
2023-02-02T13:15:50.007Z,97789.84
2023-02-02T13:18:24.791Z,97806.28
2023-02-02T13:20:57.744Z,97805.38
2023-02-02T13:23:30.390Z,97810.56
2023-02-02T13:26:04.417Z,97805.38
2023-02-02T13:28:39.378Z,97808.81
2023-02-02T13:31:16.682Z,97793.28
2023-02-02T13:33:49.638Z,97806.25
2023-02-02T13:36:28.672Z,97618.09
2023-02-02T13:38:59.746Z,97774.34
2023-02-02T13:41:29.239Z,97789.94
2023-02-02T13:44:02.802Z,97809.84
2023-02-02T13:46:36.116Z,97798.63
2023-02-02T13:49:13.282Z,97824.56
2023-02-02T13:52:01.519Z,97768.38
2023-02-02T13:55:18.815Z,97812.47
2023-02-02T13:58:24.937Z,97810.75
2023-02-02T14:00:57.802Z,97800.41
2023-02-02T14:03:33.900Z,97754.59
2023-02-02T14:06:08.906Z,97816.78
2023-02-02T14:08:39.212Z,97817.63
2023-02-02T14:11:09.439Z,97815.94
2023-02-02T14:14:03.544Z,97823.69
2023-02-02T14:17:06.345Z,97803.78
2023-02-02T14:20:01.955Z,97820.22
2023-02-02T14:22:48.609Z,97691.56
2023-02-02T14:25:53.507Z,97828.91
2023-02-02T14:28:46.386Z,97827.19
2023-02-02T14:31:36.273Z,97826.31
2023-02-02T14:34:33.759Z,97832.38
2023-02-02T14:37:29.654Z,97791.72
2023-02-02T14:40:19.247Z,97834.91
2023-02-02T14:43:15.644Z,97835.75
2023-02-02T14:45:44.111Z,97806.44
2023-02-02T14:48:17.513Z,97827.19
2023-02-02T14:50:49.805Z,97847.94
2023-02-02T14:53:26.683Z,97852.28
2023-02-02T14:56:00.736Z,97850.56
2023-02-02T14:58:35.477Z,97842.78
2023-02-02T15:01:11.902Z,97844.50
2023-02-02T15:03:54.222Z,97835.03
2023-02-02T15:06:32.464Z,97853.19
2023-02-02T15:09:42.475Z,97806.47
2023-02-02T15:12:34.118Z,97850.59
2023-02-02T15:15:16.656Z,97861.84
2023-02-02T15:17:56.126Z,97858.41
2023-02-02T15:20:31.062Z,97872.22
2023-02-02T15:23:04.584Z,97851.47
2023-02-02T15:25:37.538Z,97870.50
2023-02-02T15:28:15.644Z,97829.84
2023-02-02T15:30:49.797Z,97846.28
2023-02-02T15:33:28.695Z,97869.63
2023-02-02T15:36:00.138Z,97871.34
2023-02-02T15:38:35.661Z,97887.78
2023-02-02T15:41:09.426Z,97867.91
2023-02-02T15:43:37.970Z,97880.88
2023-02-02T15:46:12.908Z,97891.22
2023-02-02T15:48:41.270Z,97889.50
2023-02-02T15:51:17.512Z,97888.63
2023-02-02T15:53:51.955Z,97899.84
2023-02-02T15:56:29.423Z,97906.75
2023-02-02T15:58:59.961Z,97905.88
2023-02-02T16:01:33.529Z,97924.03
2023-02-02T16:04:14.604Z,97928.31
2023-02-02T16:06:43.373Z,97927.47
2023-02-02T16:09:24.078Z,97932.63
2023-02-02T16:11:53.219Z,97923.97
2023-02-02T16:14:21.869Z,97905.78
2023-02-02T16:16:51.594Z,97916.09
2023-02-02T16:19:22.917Z,97892.66
2023-02-02T16:21:54.986Z,97937.69
2023-02-02T16:24:28.008Z,97834.59
2023-02-02T16:26:58.939Z,97936.81
2023-02-02T16:29:28.386Z,97957.53
2023-02-02T16:31:58.673Z,97894.28
2023-02-02T16:34:46.753Z,97947.03
2023-02-02T16:37:17.688Z,97963.50
2023-02-02T16:39:46.105Z,97882.97
2023-02-02T16:42:25.621Z,97956.53
2023-02-02T16:44:54.069Z,97915.81
2023-02-02T16:47:39.997Z,97926.16
2023-02-02T16:50:26.355Z,97978.06
2023-02-02T16:52:57.157Z,97967.66
2023-02-02T16:55:31.545Z,97977.97
2023-02-02T16:58:07.958Z,97972.75
2023-02-02T17:00:37.061Z,97982.25
2023-02-02T17:03:09.703Z,97969.22
2023-02-02T17:05:47.194Z,97994.41
2023-02-02T17:08:15.585Z,98000.41
2023-02-02T17:10:45.240Z,97998.69
2023-02-02T17:13:39.395Z,98023.66
2023-02-02T17:16:07.936Z,98017.59
2023-02-02T17:18:37.574Z,98033.16
2023-02-02T17:21:07.849Z,98039.19
2023-02-02T17:23:38.893Z,97995.78
2023-02-02T17:26:09.451Z,98039.03
2023-02-02T17:28:40.202Z,98055.47
2023-02-02T17:31:10.526Z,98063.22
2023-02-02T17:33:40.993Z,98044.94
2023-02-02T17:36:10.050Z,98074.38
2023-02-02T17:38:38.724Z,98068.41
2023-02-02T17:41:07.471Z,98074.38
2023-02-02T17:43:35.678Z,98082.97
2023-02-02T17:46:05.093Z,98036.03
2023-02-02T17:48:34.468Z,98075.13
2023-02-02T17:51:07.260Z,98067.34
2023-02-02T17:53:35.514Z,98093.38
2023-02-02T17:56:03.607Z,98069.03
2023-02-02T17:58:31.881Z,98008.41
2023-02-02T18:01:00.265Z,98107.22
2023-02-02T18:03:33.921Z,98111.53
2023-02-02T18:06:04.119Z,98123.63
2023-02-02T18:08:33.434Z,98123.63
2023-02-02T18:11:01.635Z,98132.22
2023-02-02T18:13:30.042Z,98126.91
2023-02-02T18:15:59.955Z,98133.84
2023-02-02T18:18:29.841Z,98143.38
2023-02-02T18:20:59.065Z,98153.59
2023-02-02T18:23:29.203Z,98071.97
2023-02-02T18:25:57.505Z,98159.63
2023-02-02T18:28:25.712Z,98170.91
2023-02-02T18:30:54.044Z,98164.03
2023-02-02T18:33:23.533Z,98172.72
2023-02-02T18:35:51.840Z,98177.16
2023-02-02T18:38:20.027Z,98186.59
2023-02-02T18:40:58.060Z,98183.94
2023-02-02T18:43:26.369Z,98193.34
2023-02-02T18:46:02.161Z,98195.94
2023-02-02T18:48:31.455Z,98198.59
2023-02-02T18:51:00.234Z,98205.44
2023-02-02T18:53:28.640Z,98207.16
2023-02-02T18:55:58.747Z,98202.91
2023-02-02T18:58:27.756Z,97969.38
2023-02-02T19:00:56.028Z,98209.91
2023-02-02T19:03:24.322Z,98214.97
2023-02-02T19:06:10.042Z,98215.00
2023-02-02T19:08:38.304Z,98170.69
2023-02-02T19:11:17.981Z,98212.41
2023-02-02T19:13:46.469Z,98058.59
2023-02-02T19:16:21.588Z,98181.19
2023-02-02T19:18:49.945Z,98209.81
2023-02-02T19:21:18.298Z,98222.88
2023-02-02T19:23:46.788Z,98086.38
2023-02-02T19:26:24.873Z,98235.81
2023-02-02T19:28:53.574Z,98252.25
2023-02-02T19:31:21.912Z,98238.38
2023-02-02T19:33:51.534Z,98234.13
2023-02-02T19:36:21.405Z,98240.16
2023-02-02T19:38:51.500Z,98241.88
2023-02-02T19:41:23.137Z,98244.31
2023-02-02T19:43:57.126Z,98259.06
2023-02-02T19:46:27.564Z,98238.19
2023-02-02T19:49:05.657Z,98263.38
2023-02-02T19:51:43.078Z,98164.22
2023-02-02T19:54:39.108Z,98264.94
2023-02-02T19:57:18.377Z,98271.91
2023-02-02T19:59:49.023Z,98277.06
2023-02-02T20:02:44.780Z,98285.72
2023-02-02T20:05:20.921Z,98286.59
2023-02-02T20:07:49.692Z,98278.75
2023-02-02T20:10:22.491Z,98296.09
2023-02-02T20:12:52.763Z,98274.25
2023-02-02T20:15:30.297Z,98291.81
2023-02-02T20:18:01.127Z,98293.53
2023-02-02T20:20:33.017Z,98298.72
2023-02-02T20:23:02.321Z,98294.28
2023-02-02T20:25:32.427Z,98304.75
2023-02-02T20:28:09.689Z,98269.94
2023-02-02T20:30:37.849Z,98292.53
2023-02-02T20:33:22.143Z,98310.69
2023-02-02T20:35:50.559Z,98312.41
2023-02-02T20:38:23.169Z,98313.34
2023-02-02T20:40:52.325Z,98317.69
2023-02-02T20:43:22.427Z,98236.91
2023-02-02T20:45:51.223Z,98324.69
2023-02-02T20:48:19.537Z,98332.50
2023-02-02T20:50:47.988Z,98341.09
2023-02-02T20:53:16.703Z,98330.75
2023-02-02T20:55:44.988Z,98334.28
2023-02-02T20:58:13.454Z,98331.69
2023-02-02T21:00:43.171Z,98330.91
2023-02-02T21:03:13.344Z,98329.28
2023-02-02T21:05:41.510Z,98329.34
2023-02-02T21:08:09.781Z,98330.13
2023-02-02T21:10:38.031Z,98284.94
2023-02-02T21:13:06.314Z,98322.38
2023-02-02T21:15:34.525Z,98334.59
2023-02-02T21:18:04.501Z,98344.09
2023-02-02T21:20:32.984Z,98346.63
2023-02-02T21:23:01.208Z,98318.59
2023-02-02T21:25:29.425Z,98353.34
2023-02-02T21:27:59.712Z,98331.53
2023-02-02T21:30:28.499Z,98358.34
2023-02-02T21:32:56.977Z,98354.91
2023-02-02T21:35:27.481Z,98300.09
2023-02-02T21:37:59.189Z,98365.34
2023-02-02T21:40:30.451Z,98360.97
2023-02-02T21:43:00.654Z,98356.78
2023-02-02T21:45:34.803Z,98368.81
2023-02-02T21:48:06.642Z,98390.38
2023-02-02T21:50:38.502Z,98377.31
2023-02-02T21:53:20.171Z,98374.84
2023-02-02T21:55:52.301Z,98376.50
2023-02-02T21:58:25.695Z,98389.31
2023-02-02T22:00:54.863Z,98389.22
2023-02-02T22:03:28.445Z,98350.13
2023-02-02T22:06:15.101Z,98390.97
2023-02-02T22:08:43.328Z,98395.75
2023-02-02T22:11:23.061Z,98169.59
2023-02-02T22:13:51.380Z,98362.75
2023-02-02T22:16:21.676Z,98364.22
2023-02-02T22:18:50.054Z,98398.97
2023-02-02T22:21:21.189Z,98400.84
2023-02-02T22:23:49.466Z,98412.06
2023-02-02T22:26:30.995Z,98406.88
2023-02-02T22:28:59.210Z,98405.31
2023-02-02T22:31:27.537Z,98402.66
2023-02-02T22:33:55.818Z,98399.28
2023-02-02T22:36:25.473Z,98361.81
2023-02-02T22:38:53.642Z,98382.72
2023-02-02T22:41:21.862Z,98403.59
2023-02-02T22:43:50.059Z,98395.81
2023-02-02T22:46:18.244Z,98407.91
2023-02-02T22:48:46.502Z,98400.84
2023-02-02T22:51:14.753Z,98414.72
2023-02-02T22:53:44.344Z,98387.84
2023-02-02T22:56:12.545Z,98395.75
2023-02-02T22:58:41.032Z,98408.97
2023-02-02T23:01:09.530Z,98389.81
2023-02-02T23:03:37.753Z,98407.25
2023-02-02T23:06:06.047Z,98408.13
2023-02-02T23:08:34.664Z,98406.41
2023-02-02T23:11:04.447Z,98405.56
2023-02-02T23:13:32.583Z,98414.22
2023-02-02T23:16:00.803Z,98385.47
2023-02-02T23:18:28.899Z,98388.94
2023-02-02T23:20:57.043Z,98396.88
2023-02-02T23:23:25.342Z,98400.38
2023-02-02T23:25:53.406Z,98397.69
2023-02-02T23:28:22.994Z,98395.00
2023-02-02T23:30:51.735Z,98407.28
2023-02-02T23:33:19.896Z,98383.13
2023-02-02T23:35:48.056Z,98406.41
2023-02-02T23:38:17.925Z,98405.25
2023-02-02T23:40:46.315Z,98402.56
2023-02-02T23:43:14.427Z,98410.41
2023-02-02T23:45:43.932Z,98421.47
2023-02-02T23:48:13.165Z,98423.13
2023-02-02T23:50:42.043Z,98421.28
2023-02-02T23:53:11.590Z,98426.44
2023-02-02T23:55:41.727Z,98417.00
2023-02-02T23:58:11.371Z,98425.53
